Palacios — WDH7171 — position and weather

sailwx.info

Track history (hours):
 
Tides and Currents Weather Stations Pressure Air Temp Water Temp Dewpoint Dewpoint Depression Visibility Wind Speed Wind Dir Waves Ship Positions

Palacios

Owner: Higman Barge Lines, Inc., Orange, TX. More information available from US FCC via Universal Licensing System and Coast Guard Vessel Documentation Center.

Last reported at 2018-Jun-17 13:37 UTC. Time now 2018-Jun-19 04:37 UTC.
Position N 29°42' W 095°01'.

Length 115 m.

Type: Towing. MMSI: 367645520.

Date/timePositionNaut miles runAvg speedWind from/ knotsBaromVisibWave heightAir tempDewpointWater temp
2018-Jun-17 13:37N 29°42' W 095°01'1 8.8
2018-Jun-17 13:30N 29°42' W 094°60'5 8.6
2018-Jun-17 12:59N 29°38' W 094°58'4 8.6
2018-Jun-17 12:30N 29°34' W 094°55'20 4.1
2018-Jun-17 07:34N 29°30' W 094°33'3 7.1
2018-Jun-17 07:11N 29°31' W 094°30'2 7.1
2018-Jun-17 06:56N 29°33' W 094°28'2 5.6
2018-Jun-17 06:30N 29°34' W 094°26'3 5.8
2018-Jun-17 06:00N 29°36' W 094°24'1 2.5
2018-Jun-17 05:30N 29°36' W 094°22'0 0.0
2018-Jun-17 05:00N 29°36' W 094°22'0 0.0
2018-Jun-17 04:30N 29°36' W 094°22'2 4.2
2018-Jun-17 04:00N 29°37' W 094°20'3 5.7
2018-Jun-17 03:30N 29°39' W 094°17'3 5.2
2018-Jun-17 03:00N 29°40' W 094°15'2 4.9
2018-Jun-17 02:30N 29°41' W 094°12'3 5.0
2018-Jun-17 02:00N 29°42' W 094°09'2 3.1
2018-Jun-17 01:30N 29°43' W 094°08'4 7.4
2018-Jun-17 01:00N 29°45' W 094°05'4 7.5
2018-Jun-17 00:30N 29°47' W 094°01'3 6.8
2018-Jun-17 00:00N 29°49' W 093°58'4 7.6
2018-Jun-16 23:30N 29°52' W 093°56'4 8.2
2018-Jun-16 23:00N 29°56' W 093°53'3 6.8
2018-Jun-16 22:30N 29°58' W 093°51'3 6.5
2018-Jun-16 22:00N 29°60' W 093°47'3 6.4
2018-Jun-16 21:30N 30°02' W 093°44'3 5.8
2018-Jun-16 21:00N 30°04' W 093°42'2 4.2
2018-Jun-16 20:30N 30°04' W 093°39'3 6.4
2018-Jun-16 20:00N 30°04' W 093°36'3 6.4
2018-Jun-16 19:30N 30°04' W 093°32'3 6.5
2018-Jun-16 19:00N 30°04' W 093°28'1 1.7
2018-Jun-16 18:30N 30°04' W 093°27'2 4.5
2018-Jun-16 18:00N 30°04' W 093°24'3 5.4
2018-Jun-16 17:30N 30°04' W 093°21'3 5.4
2018-Jun-16 17:00N 30°06' W 093°19'2 3.2
2018-Jun-16 16:29N 30°05' W 093°18'1 2.4
2018-Jun-16 16:00N 30°04' W 093°16'0 0.0
2018-Jun-16 15:30N 30°05' W 093°16'0 0.0
2018-Jun-16 15:00N 30°05' W 093°16'0 0.0
2018-Jun-16 14:30N 30°05' W 093°16'0 0.0
2018-Jun-16 14:00N 30°05' W 093°16'0 0.0
2018-Jun-16 13:30N 30°04' W 093°16'0 0.0
2018-Jun-16 13:00N 30°04' W 093°16'0 0.0
2018-Jun-16 12:30N 30°04' W 093°16'0 0.0
2018-Jun-16 12:00N 30°04' W 093°16'0 0.9
2018-Jun-16 11:30N 30°04' W 093°16'2 4.4
2018-Jun-16 11:00N 30°02' W 093°15'3 5.5
2018-Jun-16 10:30N 29°60' W 093°13'0 0.0
2018-Jun-16 10:00N 29°60' W 093°13'0 0.0
2018-Jun-16 09:30N 29°60' W 093°13'0 0.0
2018-Jun-16 09:00N 29°60' W 093°13'0 0.0
2018-Jun-16 08:30N 29°60' W 093°13'0 0.0
2018-Jun-16 08:00N 29°60' W 093°13'0 0.0
2018-Jun-16 07:30N 29°60' W 093°13'0 0.0
2018-Jun-16 07:00N 29°60' W 093°13'0 0.0
2018-Jun-16 06:30N 29°60' W 093°13'0 0.0
2018-Jun-16 06:00N 29°60' W 093°13'0 0.0
2018-Jun-16 05:30N 29°60' W 093°13'0 0.0
2018-Jun-16 05:00N 29°60' W 093°13'0 0.0
2018-Jun-16 04:30N 29°60' W 093°13'0 0.0
2018-Jun-16 04:00N 29°60' W 093°13'0 0.0
2018-Jun-16 03:30N 29°60' W 093°13'0 0.0
2018-Jun-16 03:00N 29°60' W 093°13'0 0.0
2018-Jun-16 02:30N 29°60' W 093°13'0 0.0
2018-Jun-16 02:00N 29°60' W 093°13'0 0.1
2018-Jun-16 01:30N 29°60' W 093°13'2 4.8
2018-Jun-16 01:00N 29°58' W 093°11'3 5.5
2018-Jun-16 00:30N 29°56' W 093°09'3 5.1
2018-Jun-16 00:00N 29°56' W 093°06'5 0.3
2018-Jun-15 07:27N 29°56' W 093°00'1 0.5
2018-Jun-15 05:59N 29°56' W 092°60'26 5.7
2018-Jun-15 01:28N 29°54' W 092°30'3 6.1
2018-Jun-15 01:00N 29°53' W 092°27'3 6.1
2018-Jun-15 00:28N 29°53' W 092°23'3 5.6
2018-Jun-15 00:00N 29°51' W 092°21'3 5.9
2018-Jun-14 23:30N 29°50' W 092°18'3 6.1
2018-Jun-14 23:00N 29°48' W 092°15'2 4.7
2018-Jun-14 22:30N 29°47' W 092°12'1 2.2
2018-Jun-14 22:00N 29°47' W 092°11'0 0.0
2018-Jun-14 21:30N 29°47' W 092°11'0 0.0
2018-Jun-14 21:00N 29°47' W 092°11'1 2.4
2018-Jun-14 20:30N 29°47' W 092°10'3 6.6
2018-Jun-14 20:00N 29°48' W 092°06'3 6.4
2018-Jun-14 19:30N 29°49' W 092°03'3 6.2
2018-Jun-14 19:00N 29°50' W 091°59'  
Track history (hours):
 
Tides and Currents Weather Stations Pressure Air Temp Water Temp Dewpoint Dewpoint Depression Visibility Wind Speed Wind Dir Waves Ship Positions

Palacios

Owner: Higman Barge Lines, Inc., Orange, TX. More information available from US FCC via Universal Licensing System and Coast Guard Vessel Documentation Center.

Last reported at 2018-Jun-17 13:37 UTC. Time now 2018-Jun-19 04:37 UTC.
Position N 29°42' W 095°01'.

Length 115 m.

Type: Towing. MMSI: 367645520.

Date/timePositionNaut miles runAvg speedWind from/ knotsBaromVisibWave heightAir tempDewpointWater temp
2018-Jun-17 13:37N 29°42' W 095°01'1 8.8
2018-Jun-17 13:30N 29°42' W 094°60'5 8.6
2018-Jun-17 12:59N 29°38' W 094°58'4 8.6
2018-Jun-17 12:30N 29°34' W 094°55'20 4.1
2018-Jun-17 07:34N 29°30' W 094°33'3 7.1
2018-Jun-17 07:11N 29°31' W 094°30'2 7.1
2018-Jun-17 06:56N 29°33' W 094°28'2 5.6
2018-Jun-17 06:30N 29°34' W 094°26'3 5.8
2018-Jun-17 06:00N 29°36' W 094°24'1 2.5
2018-Jun-17 05:30N 29°36' W 094°22'0 0.0
2018-Jun-17 05:00N 29°36' W 094°22'0 0.0
2018-Jun-17 04:30N 29°36' W 094°22'2 4.2
2018-Jun-17 04:00N 29°37' W 094°20'3 5.7
2018-Jun-17 03:30N 29°39' W 094°17'3 5.2
2018-Jun-17 03:00N 29°40' W 094°15'2 4.9
2018-Jun-17 02:30N 29°41' W 094°12'3 5.0
2018-Jun-17 02:00N 29°42' W 094°09'2 3.1
2018-Jun-17 01:30N 29°43' W 094°08'4 7.4
2018-Jun-17 01:00N 29°45' W 094°05'4 7.5
2018-Jun-17 00:30N 29°47' W 094°01'3 6.8
2018-Jun-17 00:00N 29°49' W 093°58'4 7.6
2018-Jun-16 23:30N 29°52' W 093°56'4 8.2
2018-Jun-16 23:00N 29°56' W 093°53'3 6.8
2018-Jun-16 22:30N 29°58' W 093°51'3 6.5
2018-Jun-16 22:00N 29°60' W 093°47'3 6.4
2018-Jun-16 21:30N 30°02' W 093°44'3 5.8
2018-Jun-16 21:00N 30°04' W 093°42'2 4.2
2018-Jun-16 20:30N 30°04' W 093°39'3 6.4
2018-Jun-16 20:00N 30°04' W 093°36'3 6.4
2018-Jun-16 19:30N 30°04' W 093°32'3 6.5
2018-Jun-16 19:00N 30°04' W 093°28'1 1.7
2018-Jun-16 18:30N 30°04' W 093°27'2 4.5
2018-Jun-16 18:00N 30°04' W 093°24'3 5.4
2018-Jun-16 17:30N 30°04' W 093°21'3 5.4
2018-Jun-16 17:00N 30°06' W 093°19'2 3.2
2018-Jun-16 16:29N 30°05' W 093°18'1 2.4
2018-Jun-16 16:00N 30°04' W 093°16'0 0.0
2018-Jun-16 15:30N 30°05' W 093°16'0 0.0
2018-Jun-16 15:00N 30°05' W 093°16'0 0.0
2018-Jun-16 14:30N 30°05' W 093°16'0 0.0
2018-Jun-16 14:00N 30°05' W 093°16'0 0.0
2018-Jun-16 13:30N 30°04' W 093°16'0 0.0
2018-Jun-16 13:00N 30°04' W 093°16'0 0.0
2018-Jun-16 12:30N 30°04' W 093°16'0 0.0
2018-Jun-16 12:00N 30°04' W 093°16'0 0.9
2018-Jun-16 11:30N 30°04' W 093°16'2 4.4
2018-Jun-16 11:00N 30°02' W 093°15'3 5.5
2018-Jun-16 10:30N 29°60' W 093°13'0 0.0
2018-Jun-16 10:00N 29°60' W 093°13'0 0.0
2018-Jun-16 09:30N 29°60' W 093°13'0 0.0
2018-Jun-16 09:00N 29°60' W 093°13'0 0.0
2018-Jun-16 08:30N 29°60' W 093°13'0 0.0
2018-Jun-16 08:00N 29°60' W 093°13'0 0.0
2018-Jun-16 07:30N 29°60' W 093°13'0 0.0
2018-Jun-16 07:00N 29°60' W 093°13'0 0.0
2018-Jun-16 06:30N 29°60' W 093°13'0 0.0
2018-Jun-16 06:00N 29°60' W 093°13'0 0.0
2018-Jun-16 05:30N 29°60' W 093°13'0 0.0
2018-Jun-16 05:00N 29°60' W 093°13'0 0.0
2018-Jun-16 04:30N 29°60' W 093°13'0 0.0
2018-Jun-16 04:00N 29°60' W 093°13'0 0.0
2018-Jun-16 03:30N 29°60' W 093°13'0 0.0
2018-Jun-16 03:00N 29°60' W 093°13'0 0.0
2018-Jun-16 02:30N 29°60' W 093°13'0 0.0
2018-Jun-16 02:00N 29°60' W 093°13'0 0.1
2018-Jun-16 01:30N 29°60' W 093°13'2 4.8
2018-Jun-16 01:00N 29°58' W 093°11'3 5.5
2018-Jun-16 00:30N 29°56' W 093°09'3 5.1
2018-Jun-16 00:00N 29°56' W 093°06'5 0.3
2018-Jun-15 07:27N 29°56' W 093°00'1 0.5
2018-Jun-15 05:59N 29°56' W 092°60'26 5.7
2018-Jun-15 01:28N 29°54' W 092°30'3 6.1
2018-Jun-15 01:00N 29°53' W 092°27'3 6.1
2018-Jun-15 00:28N 29°53' W 092°23'3 5.6
2018-Jun-15 00:00N 29°51' W 092°21'3 5.9
2018-Jun-14 23:30N 29°50' W 092°18'3 6.1
2018-Jun-14 23:00N 29°48' W 092°15'2 4.7
2018-Jun-14 22:30N 29°47' W 092°12'1 2.2
2018-Jun-14 22:00N 29°47' W 092°11'0 0.0
2018-Jun-14 21:30N 29°47' W 092°11'0 0.0
2018-Jun-14 21:00N 29°47' W 092°11'1 2.4
2018-Jun-14 20:30N 29°47' W 092°10'3 6.6
2018-Jun-14 20:00N 29°48' W 092°06'3 6.4
2018-Jun-14 19:30N 29°49' W 092°03'3 6.2
2018-Jun-14 19:00N 29°50' W 091°59'  

Dump ship's entire track history